Onego Capri — V2ED7 — position and weather

sailwx.info

Track history (hours):
 
Tides and Currents Weather Stations Pressure Air Temp Water Temp Dewpoint Dewpoint Depression Visibility Wind Speed Wind Dir Waves Ship Positions

Onego Capri

Last reported at 2017-Nov-18 06:00 UTC. Time now 2017-Nov-18 06:48 UTC.
Position N 43°45' W 007°19'.

Length 140 m; draft 5.6 m.

Type: Cargo ship. MMSI: 305394000.

Date/timePositionNaut miles runAvg speedWind from/ knotsBaromVisibWave heightAir tempDewpointWater temp
2017-Nov-18 06:00N 43°45' W 007°19'510.9
2017-Nov-18 05:30N 43°45' W 007°27'2 0.1
2017-Nov-17 17:37N 43°43' W 007°27'1 6.2
2017-Nov-17 17:28N 43°44' W 007°27'1 2.5
2017-Nov-17 17:00N 43°43' W 007°25'1 1.4
2017-Nov-17 16:30N 43°43' W 007°26'1 2.0
2017-Nov-17 15:59N 43°43' W 007°25'0 0.1
2017-Nov-17 14:49N 43°43' W 007°25'0 0.0
2017-Nov-17 13:46N 43°43' W 007°25'0 0.0
2017-Nov-17 13:01N 43°43' W 007°25'0 0.0
2017-Nov-17 12:04N 43°43' W 007°25'0 0.1
2017-Nov-17 11:58N 43°43' W 007°25'0 0.0
2017-Nov-17 11:04N 43°43' W 007°25'0 0.0
2017-Nov-17 10:37N 43°43' W 007°25'0 0.0
2017-Nov-17 09:01N 43°43' W 007°25'0 0.0
2017-Nov-17 08:31N 43°43' W 007°25'0 0.0
2017-Nov-17 03:42N 43°43' W 007°25'0 0.1
2017-Nov-17 03:30N 43°43' W 007°25'0 0.0
2017-Nov-17 02:51N 43°43' W 007°24'0 0.0
2017-Nov-17 01:54N 43°43' W 007°25'0 0.1
2017-Nov-17 00:03N 43°43' W 007°25'0 0.0
2017-Nov-16 23:00N 43°43' W 007°25'0 0.0
2017-Nov-16 22:21N 43°43' W 007°25'0 0.0
2017-Nov-16 21:51N 43°43' W 007°25'0 0.0
2017-Nov-16 21:24N 43°43' W 007°25'0 0.0
2017-Nov-16 21:00N 43°43' W 007°25'0 0.0
2017-Nov-16 20:27N 43°43' W 007°25'0 0.0
2017-Nov-16 19:45N 43°43' W 007°25'0 0.0
2017-Nov-16 19:12N 43°43' W 007°25'0 0.0
2017-Nov-16 17:18N 43°43' W 007°25'0 0.0
2017-Nov-16 06:33N 43°43' W 007°25'0 0.0
2017-Nov-15 21:24N 43°43' W 007°25'0 0.0
2017-Nov-15 19:45N 43°43' W 007°25'0 0.0
2017-Nov-15 19:00N 43°43' W 007°25'0 0.0
2017-Nov-15 17:45N 43°43' W 007°25'0 0.0
2017-Nov-15 17:18N 43°43' W 007°25'0 0.0
2017-Nov-15 13:47N 43°43' W 007°25'0 0.0
2017-Nov-15 01:41N 43°43' W 007°25'0 0.0
2017-Nov-14 14:41N 43°43' W 007°24'0 0.0
2017-Nov-14 11:21N 43°43' W 007°24'2 4.5
2017-Nov-14 11:01N 43°43' W 007°22'712.5
2017-Nov-14 10:25N 43°44' W 007°12'4012.5
2017-Nov-14 07:12N 43°43' W 006°16'312.3
2017-Nov-14 06:58N 43°43' W 006°12'612.4
2017-Nov-14 06:30N 43°43' W 006°05'612.3
2017-Nov-14 06:00N 43°45' W 005°56'612.5
2017-Nov-14 05:30N 43°45' W 005°48'612.3
2017-Nov-14 05:00N 43°44' W 005°39'612.1
2017-Nov-14 04:30N 43°43' W 005°31'612.1
2017-Nov-14 04:00N 43°43' W 005°23'612.2
2017-Nov-14 03:30N 43°42' W 005°14'611.9
2017-Nov-14 03:00N 43°41' W 005°06'611.9
2017-Nov-14 02:30N 43°40' W 004°58'2611.8
2017-Nov-14 00:20N 43°37' W 004°23'411.6
2017-Nov-14 00:00N 43°37' W 004°18'611.6
2017-Nov-13 23:30N 43°36' W 004°10'611.8
2017-Nov-13 23:01N 43°36' W 004°02'611.8
2017-Nov-13 22:31N 43°35' W 003°53'611.9
2017-Nov-13 22:00N 43°35' W 003°45'34 1.7
2017-Nov-13 01:58N 43°21' W 003°02'0 0.0
2017-Nov-13 01:28N 43°21' W 003°02'0 0.0
2017-Nov-13 00:58N 43°21' W 003°02'0 0.0
2017-Nov-13 00:31N 43°21' W 003°02'0 0.0
2017-Nov-13 00:00N 43°21' W 003°02'0 0.0
2017-Nov-12 23:30N 43°21' W 003°02'0 0.0
2017-Nov-12 23:00N 43°21' W 003°02'0 0.0
2017-Nov-12 22:30N 43°21' W 003°02'0 0.0
2017-Nov-12 22:00N 43°21' W 003°02'0 0.0
2017-Nov-12 21:30N 43°21' W 003°02'0 0.0
2017-Nov-12 21:00N 43°21' W 003°02'0 0.0
2017-Nov-12 20:27N 43°21' W 003°02'0 0.0
2017-Nov-12 20:00N 43°21' W 003°02'0 0.0
2017-Nov-12 19:30N 43°21' W 003°02'0 0.0
2017-Nov-12 19:00N 43°21' W 003°02'0 0.0
2017-Nov-12 18:30N 43°21' W 003°02'0 0.0
2017-Nov-12 18:00N 43°21' W 003°02'0 0.0
2017-Nov-12 17:30N 43°21' W 003°02'0 0.0
2017-Nov-12 17:00N 43°21' W 003°02'0 0.0
2017-Nov-12 16:30N 43°21' W 003°02'0 0.0
2017-Nov-12 16:00N 43°21' W 003°02'0 0.0
2017-Nov-12 15:30N 43°21' W 003°02'0 0.0
2017-Nov-12 15:00N 43°21' W 003°02'0 0.0
2017-Nov-12 14:30N 43°21' W 003°02'0 0.0
2017-Nov-12 14:00N 43°21' W 003°02'0 0.0
2017-Nov-12 13:30N 43°21' W 003°02'0 0.0
2017-Nov-12 13:00N 43°21' W 003°02'0 0.0
2017-Nov-12 12:30N 43°21' W 003°02'0 0.0
2017-Nov-12 12:00N 43°21' W 003°02'0 0.0
2017-Nov-12 11:30N 43°21' W 003°02'0 0.0
2017-Nov-12 11:00N 43°21' W 003°02'0 0.0
2017-Nov-12 10:30N 43°21' W 003°02'0 0.0
2017-Nov-12 10:00N 43°21' W 003°02'0 0.0
2017-Nov-12 09:30N 43°21' W 003°02'0 0.0
2017-Nov-12 09:00N 43°21' W 003°02'0 0.0
2017-Nov-12 08:30N 43°21' W 003°02'0 0.0
2017-Nov-12 08:00N 43°21' W 003°02'0 0.0
2017-Nov-12 07:30N 43°21' W 003°02'0 0.0
2017-Nov-12 07:00N 43°21' W 003°02'0 0.0
2017-Nov-12 06:30N 43°21' W 003°02'0 0.0
2017-Nov-12 06:00N 43°21' W 003°02'0 0.0
2017-Nov-12 05:30N 43°21' W 003°02'0 0.0
2017-Nov-12 05:00N 43°21' W 003°02'0 0.0
2017-Nov-12 04:30N 43°21' W 003°02'0 0.0
2017-Nov-12 04:00N 43°21' W 003°02'0 0.0
2017-Nov-12 03:30N 43°21' W 003°02'0 0.0
2017-Nov-12 03:00N 43°21' W 003°02'0 0.0
2017-Nov-12 02:30N 43°21' W 003°02'0 0.0
2017-Nov-12 02:00N 43°21' W 003°02'0 0.0
2017-Nov-12 01:30N 43°21' W 003°02'0 0.0
2017-Nov-12 01:00N 43°21' W 003°02'0 0.0
2017-Nov-12 00:30N 43°21' W 003°02'0 0.0
2017-Nov-12 00:00N 43°21' W 003°02'0 0.0
2017-Nov-11 23:30N 43°21' W 003°02'0 0.0
2017-Nov-11 23:00N 43°21' W 003°02'0 0.0
2017-Nov-11 22:30N 43°21' W 003°02'0 0.0
2017-Nov-11 22:00N 43°21' W 003°02'0 0.0
2017-Nov-11 21:30N 43°21' W 003°02'0 0.0
2017-Nov-11 21:00N 43°21' W 003°02'0 0.0
2017-Nov-11 20:30N 43°21' W 003°02'0 0.0
2017-Nov-11 20:00N 43°21' W 003°02'0 0.0
2017-Nov-11 19:30N 43°21' W 003°02'0 0.0
2017-Nov-11 19:00N 43°21' W 003°02'0 0.0
2017-Nov-11 18:30N 43°21' W 003°02'0 0.0
2017-Nov-11 18:00N 43°21' W 003°02'0 0.0
2017-Nov-11 17:30N 43°21' W 003°02'0 0.0
2017-Nov-11 17:00N 43°21' W 003°02'0 0.0
2017-Nov-11 16:30N 43°21' W 003°02'0 0.0
2017-Nov-11 16:00N 43°21' W 003°02'0 0.0
2017-Nov-11 15:30N 43°21' W 003°02'0 0.0
2017-Nov-11 15:00N 43°21' W 003°02'0 0.0
2017-Nov-11 14:30N 43°21' W 003°02'0 0.0
2017-Nov-11 14:00N 43°21' W 003°02'0 0.0
2017-Nov-11 13:30N 43°21' W 003°02'0 0.0
2017-Nov-11 13:00N 43°21' W 003°02'0 0.0
2017-Nov-11 12:30N 43°21' W 003°02'0 0.0
2017-Nov-11 12:00N 43°21' W 003°02'0 0.0
2017-Nov-11 11:30N 43°21' W 003°02'0 0.1
2017-Nov-11 11:01N 43°21' W 003°02'2 4.3
2017-Nov-11 10:31N 43°22' W 003°04'3 5.2
2017-Nov-11 10:01N 43°23' W 003°07'1 1.6
2017-Nov-11 09:29N 43°23' W 003°08'0 0.1
2017-Nov-11 08:59N 43°23' W 003°08'0 0.0
2017-Nov-11 08:29N 43°23' W 003°08'0 0.0
2017-Nov-11 07:59N 43°23' W 003°08'0 0.0
2017-Nov-11 07:29N 43°23' W 003°08'0 0.0
2017-Nov-11 06:59N 43°23' W 003°08'0 0.0
2017-Nov-11 06:29N 43°23' W 003°08'0 0.0
2017-Nov-11 05:59N 43°23' W 003°08'0 0.0
2017-Nov-11 05:29N 43°23' W 003°08'0 0.0
2017-Nov-11 04:59N 43°23' W 003°08'0 0.0
2017-Nov-11 04:29N 43°23' W 003°08'0 0.0
2017-Nov-11 03:59N 43°23' W 003°08'0 0.0
2017-Nov-11 03:29N 43°23' W 003°08'0 0.0
2017-Nov-11 02:59N 43°23' W 003°08'0 0.0
2017-Nov-11 02:29N 43°23' W 003°08'0 0.0
2017-Nov-11 01:59N 43°23' W 003°08'0 0.0
2017-Nov-11 01:29N 43°23' W 003°08'0 0.0
2017-Nov-11 00:59N 43°23' W 003°08'0 0.0
2017-Nov-11 00:29N 43°23' W 003°08'0 0.0
2017-Nov-10 23:59N 43°23' W 003°08'0 0.0
2017-Nov-10 23:29N 43°23' W 003°08'0 0.0
2017-Nov-10 22:59N 43°23' W 003°08'0 0.0
2017-Nov-10 22:29N 43°23' W 003°08'0 0.0
2017-Nov-10 21:59N 43°23' W 003°08'0 0.0
2017-Nov-10 21:29N 43°23' W 003°08'0 0.1
2017-Nov-10 20:59N 43°23' W 003°08'0 0.0
2017-Nov-10 20:29N 43°23' W 003°08'0 0.0
2017-Nov-10 19:59N 43°23' W 003°08'0 0.0
2017-Nov-10 19:29N 43°23' W 003°08'0 0.1
2017-Nov-10 18:59N 43°23' W 003°08'0 0.0
2017-Nov-10 18:29N 43°23' W 003°08'0 0.1
2017-Nov-10 17:59N 43°23' W 003°08'0 0.3
2017-Nov-10 17:30N 43°23' W 003°08'3 6.2
2017-Nov-10 17:00N 43°26' W 003°07'612.4
2017-Nov-10 16:30N 43°31' W 003°12'612.5
2017-Nov-10 16:00N 43°37' W 003°15'612.4
2017-Nov-10 15:30N 43°43' W 003°18'612.4
2017-Nov-10 15:00N 43°48' W 003°21'712.5
2017-Nov-10 14:29N 43°54' W 003°24'612.7
2017-Nov-10 14:00N 44°00' W 003°27'17312.2
2017-Nov-09 23:48N 46°40' W 005°02'413.0
2017-Nov-09 23:28N 46°44' W 005°04'4312.9
2017-Nov-09 20:07N 47°24' W 005°30'1312.8
2017-Nov-09 19:04N 47°36' W 005°39'312.5
2017-Nov-09 18:48N 47°39' W 005°42'512.2
2017-Nov-09 18:25N 47°43' W 005°45'1411.9
2017-Nov-09 17:16N 47°55' W 005°54'9712.7
2017-Nov-09 09:35N 49°32' W 006°03'412.6
2017-Nov-09 09:18N 49°36' W 006°03'612.4
2017-Nov-09 08:47N 49°42' W 006°02'1112.3
2017-Nov-09 07:55N 49°53' W 006°01'512.1
2017-Nov-09 07:30N 49°58' W 006°01'611.8
2017-Nov-09 06:57N 50°04' W 006°01'511.5
2017-Nov-09 06:30N 50°09' W 006°01'611.4
2017-Nov-09 06:00N 50°15' W 006°00'611.6
2017-Nov-09 05:30N 50°21' W 005°60'611.8
2017-Nov-09 05:00N 50°27' W 006°00'612.1
2017-Nov-09 04:30N 50°33' W 006°01'612.3
2017-Nov-09 04:00N 50°39' W 006°02'712.4
2017-Nov-09 03:28N 50°46' W 006°02'612.5
2017-Nov-09 03:00N 50°51' W 006°02'21311.7
2017-Nov-08 08:51N 54°22' W 005°07'513.1
2017-Nov-08 08:30N 54°26' W 005°07'612.7
2017-Nov-08 08:00N 54°33' W 005°07'612.2
2017-Nov-08 07:31N 54°39' W 005°09'611.8
2017-Nov-08 07:01N 54°44' W 005°12'611.2
2017-Nov-08 06:30N 54°50' W 005°14'510.8
2017-Nov-08 06:00N 54°55' W 005°17'  
Track history (hours):
 
Tides and Currents Weather Stations Pressure Air Temp Water Temp Dewpoint Dewpoint Depression Visibility Wind Speed Wind Dir Waves Ship Positions

Onego Capri

Last reported at 2017-Nov-18 06:00 UTC. Time now 2017-Nov-18 06:48 UTC.
Position N 43°45' W 007°19'.

Length 140 m; draft 5.6 m.

Type: Cargo ship. MMSI: 305394000.

Date/timePositionNaut miles runAvg speedWind from/ knotsBaromVisibWave heightAir tempDewpointWater temp
2017-Nov-18 06:00N 43°45' W 007°19'510.9
2017-Nov-18 05:30N 43°45' W 007°27'2 0.1
2017-Nov-17 17:37N 43°43' W 007°27'1 6.2
2017-Nov-17 17:28N 43°44' W 007°27'1 2.5
2017-Nov-17 17:00N 43°43' W 007°25'1 1.4
2017-Nov-17 16:30N 43°43' W 007°26'1 2.0
2017-Nov-17 15:59N 43°43' W 007°25'0 0.1
2017-Nov-17 14:49N 43°43' W 007°25'0 0.0
2017-Nov-17 13:46N 43°43' W 007°25'0 0.0
2017-Nov-17 13:01N 43°43' W 007°25'0 0.0
2017-Nov-17 12:04N 43°43' W 007°25'0 0.1
2017-Nov-17 11:58N 43°43' W 007°25'0 0.0
2017-Nov-17 11:04N 43°43' W 007°25'0 0.0
2017-Nov-17 10:37N 43°43' W 007°25'0 0.0
2017-Nov-17 09:01N 43°43' W 007°25'0 0.0
2017-Nov-17 08:31N 43°43' W 007°25'0 0.0
2017-Nov-17 03:42N 43°43' W 007°25'0 0.1
2017-Nov-17 03:30N 43°43' W 007°25'0 0.0
2017-Nov-17 02:51N 43°43' W 007°24'0 0.0
2017-Nov-17 01:54N 43°43' W 007°25'0 0.1
2017-Nov-17 00:03N 43°43' W 007°25'0 0.0
2017-Nov-16 23:00N 43°43' W 007°25'0 0.0
2017-Nov-16 22:21N 43°43' W 007°25'0 0.0
2017-Nov-16 21:51N 43°43' W 007°25'0 0.0
2017-Nov-16 21:24N 43°43' W 007°25'0 0.0
2017-Nov-16 21:00N 43°43' W 007°25'0 0.0
2017-Nov-16 20:27N 43°43' W 007°25'0 0.0
2017-Nov-16 19:45N 43°43' W 007°25'0 0.0
2017-Nov-16 19:12N 43°43' W 007°25'0 0.0
2017-Nov-16 17:18N 43°43' W 007°25'0 0.0
2017-Nov-16 06:33N 43°43' W 007°25'0 0.0
2017-Nov-15 21:24N 43°43' W 007°25'0 0.0
2017-Nov-15 19:45N 43°43' W 007°25'0 0.0
2017-Nov-15 19:00N 43°43' W 007°25'0 0.0
2017-Nov-15 17:45N 43°43' W 007°25'0 0.0
2017-Nov-15 17:18N 43°43' W 007°25'0 0.0
2017-Nov-15 13:47N 43°43' W 007°25'0 0.0
2017-Nov-15 01:41N 43°43' W 007°25'0 0.0
2017-Nov-14 14:41N 43°43' W 007°24'0 0.0
2017-Nov-14 11:21N 43°43' W 007°24'2 4.5
2017-Nov-14 11:01N 43°43' W 007°22'712.5
2017-Nov-14 10:25N 43°44' W 007°12'4012.5
2017-Nov-14 07:12N 43°43' W 006°16'312.3
2017-Nov-14 06:58N 43°43' W 006°12'612.4
2017-Nov-14 06:30N 43°43' W 006°05'612.3
2017-Nov-14 06:00N 43°45' W 005°56'612.5
2017-Nov-14 05:30N 43°45' W 005°48'612.3
2017-Nov-14 05:00N 43°44' W 005°39'612.1
2017-Nov-14 04:30N 43°43' W 005°31'612.1
2017-Nov-14 04:00N 43°43' W 005°23'612.2
2017-Nov-14 03:30N 43°42' W 005°14'611.9
2017-Nov-14 03:00N 43°41' W 005°06'611.9
2017-Nov-14 02:30N 43°40' W 004°58'2611.8
2017-Nov-14 00:20N 43°37' W 004°23'411.6
2017-Nov-14 00:00N 43°37' W 004°18'611.6
2017-Nov-13 23:30N 43°36' W 004°10'611.8
2017-Nov-13 23:01N 43°36' W 004°02'611.8
2017-Nov-13 22:31N 43°35' W 003°53'611.9
2017-Nov-13 22:00N 43°35' W 003°45'34 1.7
2017-Nov-13 01:58N 43°21' W 003°02'0 0.0
2017-Nov-13 01:28N 43°21' W 003°02'0 0.0
2017-Nov-13 00:58N 43°21' W 003°02'0 0.0
2017-Nov-13 00:31N 43°21' W 003°02'0 0.0
2017-Nov-13 00:00N 43°21' W 003°02'0 0.0
2017-Nov-12 23:30N 43°21' W 003°02'0 0.0
2017-Nov-12 23:00N 43°21' W 003°02'0 0.0
2017-Nov-12 22:30N 43°21' W 003°02'0 0.0
2017-Nov-12 22:00N 43°21' W 003°02'0 0.0
2017-Nov-12 21:30N 43°21' W 003°02'0 0.0
2017-Nov-12 21:00N 43°21' W 003°02'0 0.0
2017-Nov-12 20:27N 43°21' W 003°02'0 0.0
2017-Nov-12 20:00N 43°21' W 003°02'0 0.0
2017-Nov-12 19:30N 43°21' W 003°02'0 0.0
2017-Nov-12 19:00N 43°21' W 003°02'0 0.0
2017-Nov-12 18:30N 43°21' W 003°02'0 0.0
2017-Nov-12 18:00N 43°21' W 003°02'0 0.0
2017-Nov-12 17:30N 43°21' W 003°02'0 0.0
2017-Nov-12 17:00N 43°21' W 003°02'0 0.0
2017-Nov-12 16:30N 43°21' W 003°02'0 0.0
2017-Nov-12 16:00N 43°21' W 003°02'0 0.0
2017-Nov-12 15:30N 43°21' W 003°02'0 0.0
2017-Nov-12 15:00N 43°21' W 003°02'0 0.0
2017-Nov-12 14:30N 43°21' W 003°02'0 0.0
2017-Nov-12 14:00N 43°21' W 003°02'0 0.0
2017-Nov-12 13:30N 43°21' W 003°02'0 0.0
2017-Nov-12 13:00N 43°21' W 003°02'0 0.0
2017-Nov-12 12:30N 43°21' W 003°02'0 0.0
2017-Nov-12 12:00N 43°21' W 003°02'0 0.0
2017-Nov-12 11:30N 43°21' W 003°02'0 0.0
2017-Nov-12 11:00N 43°21' W 003°02'0 0.0
2017-Nov-12 10:30N 43°21' W 003°02'0 0.0
2017-Nov-12 10:00N 43°21' W 003°02'0 0.0
2017-Nov-12 09:30N 43°21' W 003°02'0 0.0
2017-Nov-12 09:00N 43°21' W 003°02'0 0.0
2017-Nov-12 08:30N 43°21' W 003°02'0 0.0
2017-Nov-12 08:00N 43°21' W 003°02'0 0.0
2017-Nov-12 07:30N 43°21' W 003°02'0 0.0
2017-Nov-12 07:00N 43°21' W 003°02'0 0.0
2017-Nov-12 06:30N 43°21' W 003°02'0 0.0
2017-Nov-12 06:00N 43°21' W 003°02'0 0.0
2017-Nov-12 05:30N 43°21' W 003°02'0 0.0
2017-Nov-12 05:00N 43°21' W 003°02'0 0.0
2017-Nov-12 04:30N 43°21' W 003°02'0 0.0
2017-Nov-12 04:00N 43°21' W 003°02'0 0.0
2017-Nov-12 03:30N 43°21' W 003°02'0 0.0
2017-Nov-12 03:00N 43°21' W 003°02'0 0.0
2017-Nov-12 02:30N 43°21' W 003°02'0 0.0
2017-Nov-12 02:00N 43°21' W 003°02'0 0.0
2017-Nov-12 01:30N 43°21' W 003°02'0 0.0
2017-Nov-12 01:00N 43°21' W 003°02'0 0.0
2017-Nov-12 00:30N 43°21' W 003°02'0 0.0
2017-Nov-12 00:00N 43°21' W 003°02'0 0.0
2017-Nov-11 23:30N 43°21' W 003°02'0 0.0
2017-Nov-11 23:00N 43°21' W 003°02'0 0.0
2017-Nov-11 22:30N 43°21' W 003°02'0 0.0
2017-Nov-11 22:00N 43°21' W 003°02'0 0.0
2017-Nov-11 21:30N 43°21' W 003°02'0 0.0
2017-Nov-11 21:00N 43°21' W 003°02'0 0.0
2017-Nov-11 20:30N 43°21' W 003°02'0 0.0
2017-Nov-11 20:00N 43°21' W 003°02'0 0.0
2017-Nov-11 19:30N 43°21' W 003°02'0 0.0
2017-Nov-11 19:00N 43°21' W 003°02'0 0.0
2017-Nov-11 18:30N 43°21' W 003°02'0 0.0
2017-Nov-11 18:00N 43°21' W 003°02'0 0.0
2017-Nov-11 17:30N 43°21' W 003°02'0 0.0
2017-Nov-11 17:00N 43°21' W 003°02'0 0.0
2017-Nov-11 16:30N 43°21' W 003°02'0 0.0
2017-Nov-11 16:00N 43°21' W 003°02'0 0.0
2017-Nov-11 15:30N 43°21' W 003°02'0 0.0
2017-Nov-11 15:00N 43°21' W 003°02'0 0.0
2017-Nov-11 14:30N 43°21' W 003°02'0 0.0
2017-Nov-11 14:00N 43°21' W 003°02'0 0.0
2017-Nov-11 13:30N 43°21' W 003°02'0 0.0
2017-Nov-11 13:00N 43°21' W 003°02'0 0.0
2017-Nov-11 12:30N 43°21' W 003°02'0 0.0
2017-Nov-11 12:00N 43°21' W 003°02'0 0.0
2017-Nov-11 11:30N 43°21' W 003°02'0 0.1
2017-Nov-11 11:01N 43°21' W 003°02'2 4.3
2017-Nov-11 10:31N 43°22' W 003°04'3 5.2
2017-Nov-11 10:01N 43°23' W 003°07'1 1.6
2017-Nov-11 09:29N 43°23' W 003°08'0 0.1
2017-Nov-11 08:59N 43°23' W 003°08'0 0.0
2017-Nov-11 08:29N 43°23' W 003°08'0 0.0
2017-Nov-11 07:59N 43°23' W 003°08'0 0.0
2017-Nov-11 07:29N 43°23' W 003°08'0 0.0
2017-Nov-11 06:59N 43°23' W 003°08'0 0.0
2017-Nov-11 06:29N 43°23' W 003°08'0 0.0
2017-Nov-11 05:59N 43°23' W 003°08'0 0.0
2017-Nov-11 05:29N 43°23' W 003°08'0 0.0
2017-Nov-11 04:59N 43°23' W 003°08'0 0.0
2017-Nov-11 04:29N 43°23' W 003°08'0 0.0
2017-Nov-11 03:59N 43°23' W 003°08'0 0.0
2017-Nov-11 03:29N 43°23' W 003°08'0 0.0
2017-Nov-11 02:59N 43°23' W 003°08'0 0.0
2017-Nov-11 02:29N 43°23' W 003°08'0 0.0
2017-Nov-11 01:59N 43°23' W 003°08'0 0.0
2017-Nov-11 01:29N 43°23' W 003°08'0 0.0
2017-Nov-11 00:59N 43°23' W 003°08'0 0.0
2017-Nov-11 00:29N 43°23' W 003°08'0 0.0
2017-Nov-10 23:59N 43°23' W 003°08'0 0.0
2017-Nov-10 23:29N 43°23' W 003°08'0 0.0
2017-Nov-10 22:59N 43°23' W 003°08'0 0.0
2017-Nov-10 22:29N 43°23' W 003°08'0 0.0
2017-Nov-10 21:59N 43°23' W 003°08'0 0.0
2017-Nov-10 21:29N 43°23' W 003°08'0 0.1
2017-Nov-10 20:59N 43°23' W 003°08'0 0.0
2017-Nov-10 20:29N 43°23' W 003°08'0 0.0
2017-Nov-10 19:59N 43°23' W 003°08'0 0.0
2017-Nov-10 19:29N 43°23' W 003°08'0 0.1
2017-Nov-10 18:59N 43°23' W 003°08'0 0.0
2017-Nov-10 18:29N 43°23' W 003°08'0 0.1
2017-Nov-10 17:59N 43°23' W 003°08'0 0.3
2017-Nov-10 17:30N 43°23' W 003°08'3 6.2
2017-Nov-10 17:00N 43°26' W 003°07'612.4
2017-Nov-10 16:30N 43°31' W 003°12'612.5
2017-Nov-10 16:00N 43°37' W 003°15'612.4
2017-Nov-10 15:30N 43°43' W 003°18'612.4
2017-Nov-10 15:00N 43°48' W 003°21'712.5
2017-Nov-10 14:29N 43°54' W 003°24'612.7
2017-Nov-10 14:00N 44°00' W 003°27'17312.2
2017-Nov-09 23:48N 46°40' W 005°02'413.0
2017-Nov-09 23:28N 46°44' W 005°04'4312.9
2017-Nov-09 20:07N 47°24' W 005°30'1312.8
2017-Nov-09 19:04N 47°36' W 005°39'312.5
2017-Nov-09 18:48N 47°39' W 005°42'512.2
2017-Nov-09 18:25N 47°43' W 005°45'1411.9
2017-Nov-09 17:16N 47°55' W 005°54'9712.7
2017-Nov-09 09:35N 49°32' W 006°03'412.6
2017-Nov-09 09:18N 49°36' W 006°03'612.4
2017-Nov-09 08:47N 49°42' W 006°02'1112.3
2017-Nov-09 07:55N 49°53' W 006°01'512.1
2017-Nov-09 07:30N 49°58' W 006°01'611.8
2017-Nov-09 06:57N 50°04' W 006°01'511.5
2017-Nov-09 06:30N 50°09' W 006°01'611.4
2017-Nov-09 06:00N 50°15' W 006°00'611.6
2017-Nov-09 05:30N 50°21' W 005°60'611.8
2017-Nov-09 05:00N 50°27' W 006°00'612.1
2017-Nov-09 04:30N 50°33' W 006°01'612.3
2017-Nov-09 04:00N 50°39' W 006°02'712.4
2017-Nov-09 03:28N 50°46' W 006°02'612.5
2017-Nov-09 03:00N 50°51' W 006°02'21311.7
2017-Nov-08 08:51N 54°22' W 005°07'513.1
2017-Nov-08 08:30N 54°26' W 005°07'612.7
2017-Nov-08 08:00N 54°33' W 005°07'612.2
2017-Nov-08 07:31N 54°39' W 005°09'611.8
2017-Nov-08 07:01N 54°44' W 005°12'611.2
2017-Nov-08 06:30N 54°50' W 005°14'510.8
2017-Nov-08 06:00N 54°55' W 005°17'  

Dump ship's entire track history